Time;durP1;ratioP1;P1;durP2;ratioP2;P2;SDS_P1;SDS_P2;PMS_P1;PMS_P2;Temp;Humidity;BMP_temperature;BMP_pressure;BME280_temperature;BME280_humidity;BME280_pressure;Samples;Min_cycle;Max_cycle;Signal;HPM_P1;HPM_P2
2022/09/29 00:01:08;;;;;;;1.17;0.77;;;;;;;;;;5140345;27;20202;-66
2022/09/29 00:03:36;;;;;;;0.82;0.82;;;;;;;;;;5139422;27;20281;-66
2022/09/29 00:06:11;;;;;;;0.82;0.80;;;;;;;;;;5140280;27;20574;-66
2022/09/29 00:08:39;;;;;;;1.08;0.95;;;;;;;;;;5139898;27;20296;-66
2022/09/29 00:11:08;;;;;;;0.98;0.98;;;;;;;;;;5126748;27;20234;-66
2022/09/29 00:13:35;;;;;;;0.80;0.80;;;;;;;;;;5138264;27;20225;-66
2022/09/29 00:16:03;;;;;;;0.80;0.80;;;;;;;;;;5139679;27;20231;-66
2022/09/29 00:18:32;;;;;;;1.15;1.05;;;;;;;;;;5139837;27;20210;-66
2022/09/29 00:21:00;;;;;;;0.95;0.90;;;;;;;;;;5139474;27;20222;-66
2022/09/29 00:23:29;;;;;;;0.80;0.80;;;;;;;;;;5139990;27;20282;-66
2022/09/29 00:26:04;;;;;;;0.80;0.80;;;;;;;;;;5139291;27;20321;-66
2022/09/29 00:28:32;;;;;;;0.80;0.80;;;;;;;;;;5125414;27;20198;-66
2022/09/29 00:31:00;;;;;;;0.80;0.80;;;;;;;;;;5133541;27;20199;-66
2022/09/29 00:33:29;;;;;;;0.80;0.70;;;;;;;;;;5140205;27;20291;-66
2022/09/29 00:35:58;;;;;;;0.90;0.90;;;;;;;;;;5139626;27;20237;-66
2022/09/29 00:38:26;;;;;;;0.90;0.90;;;;;;;;;;5139379;27;20214;-66
2022/09/29 00:40:54;;;;;;;0.80;0.80;;;;;;;;;;5139272;27;20557;-66
2022/09/29 00:43:23;;;;;;;0.80;0.80;;;;;;;;;;5139529;27;20286;-66
2022/09/29 00:45:51;;;;;;;1.15;0.70;;;;;;;;;;5139169;27;20422;-66
2022/09/29 00:48:22;;;;;;;0.80;0.73;;;;;;;;;;5139257;27;20291;-66
2022/09/29 00:50:52;;;;;;;0.95;0.90;;;;;;;;;;5138519;27;20248;-66
2022/09/29 00:53:20;;;;;;;1.05;0.80;;;;;;;;;;5139312;27;20203;-66
2022/09/29 00:55:49;;;;;;;0.70;0.70;;;;;;;;;;5139038;27;20202;-66
2022/09/29 00:58:22;;;;;;;0.70;0.70;;;;;;;;;;5123350;27;20650;-66
2022/09/29 01:00:50;;;;;;;0.88;0.63;;;;;;;;;;5131452;27;20213;-66
2022/09/29 01:03:19;;;;;;;0.77;0.77;;;;;;;;;;5138841;27;20293;-66
2022/09/29 01:05:48;;;;;;;0.60;0.60;;;;;;;;;;5138780;27;20256;-66
2022/09/29 01:08:17;;;;;;;0.60;0.60;;;;;;;;;;5138733;27;20275;-66
2022/09/29 01:10:45;;;;;;;0.80;0.80;;;;;;;;;;5138527;27;20293;-66
2022/09/29 01:13:13;;;;;;;0.63;0.63;;;;;;;;;;5138366;27;20286;-66
2022/09/29 01:15:42;;;;;;;0.70;0.70;;;;;;;;;;5121530;27;20210;-66
2022/09/29 01:18:10;;;;;;;1.45;0.80;;;;;;;;;;5138448;27;20289;-66
2022/09/29 01:20:40;;;;;;;0.73;0.73;;;;;;;;;;5131950;27;20278;-66
2022/09/29 01:23:33;;;;;;;0.80;0.80;;;;;;;;;;5117917;28;20285;-66
2022/09/29 01:26:14;;;;;;;0.70;0.70;;;;;;;;;;5117264;28;20230;-66
2022/09/29 01:28:56;;;;;;;0.68;0.68;;;;;;;;;;5101556;28;20286;-66
2022/09/29 01:31:30;;;;;;;0.60;0.60;;;;;;;;;;5094472;28;20239;-66
2022/09/29 01:34:02;;;;;;;0.60;0.60;;;;;;;;;;5097848;28;20556;-66
2022/09/29 01:36:35;;;;;;;0.80;0.80;;;;;;;;;;5097111;28;20282;-66
2022/09/29 01:39:07;;;;;;;0.60;0.60;;;;;;;;;;5097046;28;20204;-66
2022/09/29 01:41:39;;;;;;;0.63;0.63;;;;;;;;;;5096967;28;20203;-66
2022/09/29 01:44:09;;;;;;;0.80;0.80;;;;;;;;;;5106079;28;20281;-66
2022/09/29 01:46:40;;;;;;;0.70;0.70;;;;;;;;;;5117329;28;20310;-66
2022/09/29 01:49:09;;;;;;;0.75;0.75;;;;;;;;;;5117412;28;20202;-66
2022/09/29 01:51:39;;;;;;;0.70;0.70;;;;;;;;;;5117213;28;20749;-66
2022/09/29 01:54:10;;;;;;;0.80;0.80;;;;;;;;;;5104904;28;20231;-66
2022/09/29 01:56:38;;;;;;;0.68;0.68;;;;;;;;;;5097183;28;20305;-66
2022/09/29 01:59:07;;;;;;;0.65;0.65;;;;;;;;;;5096995;28;20211;-66
2022/09/29 02:01:37;;;;;;;0.68;0.68;;;;;;;;;;5097527;28;20243;-66
2022/09/29 02:04:10;;;;;;;0.90;0.80;;;;;;;;;;5100734;28;20318;-66
2022/09/29 02:06:41;;;;;;;0.77;0.77;;;;;;;;;;5100528;28;20237;-66
2022/09/29 02:09:10;;;;;;;0.70;0.70;;;;;;;;;;5100418;28;20199;-67
2022/09/29 02:11:39;;;;;;;0.70;0.70;;;;;;;;;;5117206;28;20206;-66
2022/09/29 02:14:12;;;;;;;0.80;0.80;;;;;;;;;;5121061;28;20289;-66
2022/09/29 02:16:42;;;;;;;0.68;0.68;;;;;;;;;;5121535;28;20195;-66
2022/09/29 02:19:14;;;;;;;0.60;0.60;;;;;;;;;;5121091;28;20264;-66
2022/09/29 02:21:41;;;;;;;0.68;0.68;;;;;;;;;;5133073;27;20226;-66
2022/09/29 02:24:08;;;;;;;0.70;0.70;;;;;;;;;;5142415;27;20304;-66
2022/09/29 02:26:36;;;;;;;0.70;0.70;;;;;;;;;;5141743;27;20265;-66
2022/09/29 02:29:04;;;;;;;0.70;0.70;;;;;;;;;;5141795;27;20258;-66
2022/09/29 02:31:32;;;;;;;0.77;0.70;;;;;;;;;;5141739;27;20586;-66
2022/09/29 02:34:00;;;;;;;0.55;0.55;;;;;;;;;;5141771;27;20244;-66
2022/09/29 02:36:33;;;;;;;0.60;0.60;;;;;;;;;;5142232;27;20570;-66
2022/09/29 02:39:02;;;;;;;0.80;0.70;;;;;;;;;;5141779;27;20202;-66
2022/09/29 02:41:36;;;;;;;0.65;0.65;;;;;;;;;;5141701;27;20202;-66
2022/09/29 02:44:18;;;;;;;0.70;0.70;;;;;;;;;;5141711;27;20277;-66
2022/09/29 02:46:51;;;;;;;0.82;0.82;;;;;;;;;;5138037;27;20226;-66
2022/09/29 02:49:25;;;;;;;0.55;0.55;;;;;;;;;;5141248;27;20202;-66
2022/09/29 02:51:57;;;;;;;1.42;0.70;;;;;;;;;;5141278;27;20202;-67
2022/09/29 02:54:34;;;;;;;0.50;0.50;;;;;;;;;;5141447;27;20202;-66
2022/09/29 02:57:06;;;;;;;0.80;0.80;;;;;;;;;;5141873;27;20198;-67
2022/09/29 02:59:37;;;;;;;0.60;0.60;;;;;;;;;;5141498;27;20567;-67
2022/09/29 03:02:05;;;;;;;0.60;0.60;;;;;;;;;;5141326;27;20266;-66
2022/09/29 03:04:32;;;;;;;0.80;0.80;;;;;;;;;;5141304;27;20213;-65
2022/09/29 03:07:01;;;;;;;0.73;0.70;;;;;;;;;;5140522;27;20221;-65
2022/09/29 03:09:28;;;;;;;0.60;0.60;;;;;;;;;;5140764;27;20201;-65
2022/09/29 03:11:57;;;;;;;0.70;0.70;;;;;;;;;;5140421;27;20296;-66
2022/09/29 03:14:25;;;;;;;0.60;0.60;;;;;;;;;;5139873;27;20550;-66
2022/09/29 03:16:52;;;;;;;0.70;0.70;;;;;;;;;;5139970;27;20230;-66
2022/09/29 03:19:19;;;;;;;0.60;0.60;;;;;;;;;;5140671;27;20320;-66
2022/09/29 03:21:47;;;;;;;0.60;0.60;;;;;;;;;;5140377;27;20265;-65
2022/09/29 03:24:16;;;;;;;0.50;0.50;;;;;;;;;;5140752;27;20574;-66
2022/09/29 03:26:43;;;;;;;0.95;0.82;;;;;;;;;;5140564;27;20261;-66
2022/09/29 03:29:11;;;;;;;0.50;0.50;;;;;;;;;;5140482;27;20230;-66
2022/09/29 03:31:40;;;;;;;1.58;0.73;;;;;;;;;;5140575;27;20209;-66
2022/09/29 03:34:07;;;;;;;0.60;0.60;;;;;;;;;;5140909;27;20213;-65
2022/09/29 03:36:35;;;;;;;0.75;0.75;;;;;;;;;;5140556;27;20202;-67
2022/09/29 03:39:03;;;;;;;0.70;0.70;;;;;;;;;;5140734;27;20248;-65
2022/09/29 03:41:31;;;;;;;0.65;0.65;;;;;;;;;;5139752;27;20289;-65
2022/09/29 03:43:59;;;;;;;0.70;0.70;;;;;;;;;;5140168;27;20281;-65
2022/09/29 03:46:26;;;;;;;0.60;0.60;;;;;;;;;;5139980;27;20284;-65
2022/09/29 03:48:55;;;;;;;0.70;0.70;;;;;;;;;;5140145;27;20288;-66
2022/09/29 03:51:22;;;;;;;0.60;0.60;;;;;;;;;;5139968;27;20289;-65
2022/09/29 03:53:50;;;;;;;0.60;0.60;;;;;;;;;;5139936;27;20284;-65
2022/09/29 03:56:17;;;;;;;0.60;0.60;;;;;;;;;;5140408;27;20550;-65
2022/09/29 03:58:46;;;;;;;0.60;0.50;;;;;;;;;;5139900;27;20297;-65
2022/09/29 04:01:14;;;;;;;0.63;0.63;;;;;;;;;;5139876;27;20300;-65
2022/09/29 04:03:41;;;;;;;0.70;0.70;;;;;;;;;;5139992;27;20715;-65
2022/09/29 04:06:08;;;;;;;0.70;0.70;;;;;;;;;;5139262;27;20242;-65
2022/09/29 04:08:37;;;;;;;0.50;0.50;;;;;;;;;;5139526;27;20257;-66
2022/09/29 04:11:05;;;;;;;0.80;0.80;;;;;;;;;;5138622;27;20202;-66
2022/09/29 04:13:33;;;;;;;0.60;0.60;;;;;;;;;;5132777;27;20569;-66
2022/09/29 04:16:03;;;;;;;0.57;0.57;;;;;;;;;;5118418;28;21173;-66
2022/09/29 04:18:31;;;;;;;0.70;0.70;;;;;;;;;;5117824;28;20294;-66
2022/09/29 04:20:59;;;;;;;0.70;0.70;;;;;;;;;;5118206;28;20639;-65
2022/09/29 04:23:28;;;;;;;1.00;0.70;;;;;;;;;;5117962;28;20203;-65
2022/09/29 04:25:56;;;;;;;0.60;0.60;;;;;;;;;;5117991;28;20226;-65
2022/09/29 04:28:23;;;;;;;0.70;0.70;;;;;;;;;;5117862;28;20238;-65
2022/09/29 04:30:51;;;;;;;0.70;0.70;;;;;;;;;;5117922;28;20290;-66
2022/09/29 04:33:20;;;;;;;0.68;0.68;;;;;;;;;;5117520;28;20246;-66
2022/09/29 04:35:47;;;;;;;0.50;0.50;;;;;;;;;;5117190;28;20667;-65
2022/09/29 04:38:15;;;;;;;0.70;0.70;;;;;;;;;;5135014;27;20255;-65
2022/09/29 04:40:42;;;;;;;0.50;0.50;;;;;;;;;;5138246;27;20316;-65
2022/09/29 04:43:10;;;;;;;0.70;0.70;;;;;;;;;;5137354;27;20297;-65
2022/09/29 04:45:37;;;;;;;0.70;0.70;;;;;;;;;;5137049;27;20796;-67
2022/09/29 04:48:05;;;;;;;0.70;0.70;;;;;;;;;;5137450;27;20254;-65
2022/09/29 04:50:33;;;;;;;0.60;0.60;;;;;;;;;;5137182;27;20259;-66
2022/09/29 04:53:01;;;;;;;0.60;0.60;;;;;;;;;;5136765;27;20206;-66
2022/09/29 04:55:28;;;;;;;0.65;0.60;;;;;;;;;;5136821;27;20206;-65
2022/09/29 04:57:56;;;;;;;0.55;0.55;;;;;;;;;;5136551;27;20233;-65
2022/09/29 05:00:23;;;;;;;0.85;0.85;;;;;;;;;;5136820;27;20202;-66
2022/09/29 05:02:51;;;;;;;0.70;0.70;;;;;;;;;;5136596;27;20732;-65
2022/09/29 05:05:19;;;;;;;0.70;0.70;;;;;;;;;;5134422;27;20621;-67
2022/09/29 05:07:48;;;;;;;0.60;0.60;;;;;;;;;;5132412;27;20262;-67
2022/09/29 05:10:15;;;;;;;1.13;0.80;;;;;;;;;;5131772;27;20205;-67
2022/09/29 05:12:48;;;;;;;0.70;0.70;;;;;;;;;;5135661;27;20291;-67
2022/09/29 05:15:16;;;;;;;0.60;0.60;;;;;;;;;;5135138;27;20209;-66
2022/09/29 05:17:43;;;;;;;0.77;0.77;;;;;;;;;;5135336;27;20499;-65
2022/09/29 05:20:12;;;;;;;0.65;0.65;;;;;;;;;;5134879;27;20289;-67
2022/09/29 05:22:39;;;;;;;0.70;0.70;;;;;;;;;;5136210;27;20213;-67
2022/09/29 05:25:08;;;;;;;0.70;0.70;;;;;;;;;;5135638;27;20210;-66
2022/09/29 05:27:36;;;;;;;0.88;0.70;;;;;;;;;;5128771;27;20226;-65
2022/09/29 05:30:04;;;;;;;0.70;0.70;;;;;;;;;;5114497;28;20271;-65
2022/09/29 05:32:31;;;;;;;0.80;0.80;;;;;;;;;;5129120;27;20258;-65
2022/09/29 05:34:59;;;;;;;0.70;0.70;;;;;;;;;;5135721;27;20232;-65
2022/09/29 05:37:27;;;;;;;0.60;0.60;;;;;;;;;;5134850;27;20263;-66
2022/09/29 05:39:54;;;;;;;0.70;0.70;;;;;;;;;;5135879;27;20282;-65
2022/09/29 05:42:24;;;;;;;0.70;0.70;;;;;;;;;;5135073;27;20713;-67
2022/09/29 05:44:52;;;;;;;0.70;0.70;;;;;;;;;;5134577;27;20221;-65
2022/09/29 05:47:19;;;;;;;0.70;0.70;;;;;;;;;;5134383;27;20209;-65
2022/09/29 05:49:47;;;;;;;0.80;0.80;;;;;;;;;;5134505;27;20297;-66
2022/09/29 05:52:14;;;;;;;0.80;0.80;;;;;;;;;;5134694;27;20250;-66
2022/09/29 05:54:42;;;;;;;0.68;0.68;;;;;;;;;;5135221;27;20238;-66
2022/09/29 05:57:09;;;;;;;0.90;0.80;;;;;;;;;;5135002;27;20305;-67
2022/09/29 05:59:38;;;;;;;0.77;0.77;;;;;;;;;;5134998;28;20360;-66
2022/09/29 06:02:06;;;;;;;0.80;0.80;;;;;;;;;;5135115;28;20249;-66
2022/09/29 06:04:34;;;;;;;1.10;0.68;;;;;;;;;;5134816;28;20251;-66
2022/09/29 06:07:03;;;;;;;0.60;0.60;;;;;;;;;;5134956;28;20203;-65
2022/09/29 06:09:30;;;;;;;0.80;0.80;;;;;;;;;;5135231;28;20222;-66
2022/09/29 06:11:59;;;;;;;0.80;0.80;;;;;;;;;;5135197;28;20202;-67
2022/09/29 06:14:26;;;;;;;0.70;0.70;;;;;;;;;;5135856;28;20241;-65
2022/09/29 06:16:55;;;;;;;0.80;0.80;;;;;;;;;;5135813;28;20274;-67
2022/09/29 06:19:23;;;;;;;0.80;0.70;;;;;;;;;;5135752;28;20209;-66
2022/09/29 06:21:50;;;;;;;0.70;0.70;;;;;;;;;;5136435;28;20537;-66
2022/09/29 06:24:17;;;;;;;0.85;0.77;;;;;;;;;;5135538;28;20212;-67
2022/09/29 06:26:45;;;;;;;0.80;0.80;;;;;;;;;;5135276;28;20198;-67
2022/09/29 06:29:14;;;;;;;0.80;0.80;;;;;;;;;;5135144;28;20218;-67
2022/09/29 06:31:41;;;;;;;0.80;0.80;;;;;;;;;;5135466;28;20543;-66
2022/09/29 06:34:11;;;;;;;0.98;0.80;;;;;;;;;;5135029;28;20211;-65
2022/09/29 06:39:25;;;;;;;0.90;0.65;;;;;;;;;;5135586;28;20197;-65
2022/09/29 06:41:54;;;;;;;0.60;0.60;;;;;;;;;;5135438;28;20230;-65
2022/09/29 06:44:23;;;;;;;1.77;0.93;;;;;;;;;;5135492;28;20224;-65
2022/09/29 06:46:51;;;;;;;0.70;0.70;;;;;;;;;;5135517;28;20206;-66
2022/09/29 06:49:20;;;;;;;0.80;0.75;;;;;;;;;;5136710;27;20237;-67
2022/09/29 06:51:48;;;;;;;0.60;0.60;;;;;;;;;;5138748;27;20238;-67
2022/09/29 06:54:16;;;;;;;1.05;0.70;;;;;;;;;;5138122;27;20224;-67
2022/09/29 06:56:43;;;;;;;0.70;0.70;;;;;;;;;;5138551;27;20237;-67
2022/09/29 06:59:11;;;;;;;1.00;0.65;;;;;;;;;;5138260;27;20230;-67
2022/09/29 07:01:38;;;;;;;0.90;0.77;;;;;;;;;;5137598;27;20301;-65
2022/09/29 07:04:06;;;;;;;1.67;0.80;;;;;;;;;;5138523;27;20226;-66
2022/09/29 07:06:35;;;;;;;0.82;0.80;;;;;;;;;;5138271;27;20202;-66
2022/09/29 07:09:02;;;;;;;0.80;0.80;;;;;;;;;;5138521;27;20267;-66
2022/09/29 07:11:29;;;;;;;0.80;0.80;;;;;;;;;;5138207;27;20282;-66
2022/09/29 07:13:57;;;;;;;0.80;0.80;;;;;;;;;;5138283;27;20261;-65
2022/09/29 07:16:24;;;;;;;1.25;0.80;;;;;;;;;;5138723;27;20718;-65
2022/09/29 07:18:52;;;;;;;0.85;0.85;;;;;;;;;;5138790;27;20241;-66
2022/09/29 07:21:20;;;;;;;0.70;0.70;;;;;;;;;;5137326;27;20663;-65
2022/09/29 07:23:50;;;;;;;0.80;0.80;;;;;;;;;;5137359;27;20198;-65
2022/09/29 07:26:17;;;;;;;0.90;0.70;;;;;;;;;;5137066;27;20230;-65
2022/09/29 07:28:45;;;;;;;0.73;0.73;;;;;;;;;;5137931;27;20249;-65
2022/09/29 07:31:14;;;;;;;0.70;0.70;;;;;;;;;;5137844;27;20202;-65
2022/09/29 07:33:41;;;;;;;0.80;0.80;;;;;;;;;;5138544;27;20605;-65
2022/09/29 07:36:09;;;;;;;0.80;0.80;;;;;;;;;;5138234;27;20307;-65
2022/09/29 07:38:37;;;;;;;0.80;0.77;;;;;;;;;;5138210;27;20259;-66
2022/09/29 07:41:07;;;;;;;0.70;0.70;;;;;;;;;;5137815;27;20638;-66
2022/09/29 07:43:34;;;;;;;0.95;0.70;;;;;;;;;;5132926;27;20571;-65
2022/09/29 07:46:02;;;;;;;0.98;0.90;;;;;;;;;;5117915;28;20609;-66
2022/09/29 07:48:30;;;;;;;1.00;0.90;;;;;;;;;;5124587;27;20226;-65
2022/09/29 07:51:02;;;;;;;0.80;0.80;;;;;;;;;;5138269;27;20267;-66
2022/09/29 07:53:29;;;;;;;1.00;0.95;;;;;;;;;;5137206;27;20206;-66
2022/09/29 07:55:57;;;;;;;1.27;1.10;;;;;;;;;;5138074;27;20198;-66
2022/09/29 07:58:26;;;;;;;1.40;1.00;;;;;;;;;;5137454;27;20229;-66
2022/09/29 08:00:56;;;;;;;0.95;0.80;;;;;;;;;;5136856;27;20203;-66
2022/09/29 08:03:25;;;;;;;2.45;0.88;;;;;;;;;;5137761;27;20286;-66
2022/09/29 08:05:52;;;;;;;1.45;0.80;;;;;;;;;;5137983;27;20233;-66
2022/09/29 08:08:20;;;;;;;0.73;0.73;;;;;;;;;;5137960;27;20257;-66
2022/09/29 08:10:47;;;;;;;0.82;0.82;;;;;;;;;;5136984;27;20237;-66
2022/09/29 08:13:15;;;;;;;0.80;0.80;;;;;;;;;;5137419;27;20230;-66
2022/09/29 08:15:44;;;;;;;1.40;0.88;;;;;;;;;;5136989;27;20217;-66
2022/09/29 08:18:11;;;;;;;0.80;0.80;;;;;;;;;;5137882;27;20213;-66
2022/09/29 08:20:39;;;;;;;0.70;0.70;;;;;;;;;;5136911;27;20641;-66
2022/09/29 08:23:06;;;;;;;1.20;0.70;;;;;;;;;;5136955;27;20246;-66
2022/09/29 08:25:34;;;;;;;1.23;0.93;;;;;;;;;;5137148;27;20285;-66
2022/09/29 08:28:02;;;;;;;1.02;0.90;;;;;;;;;;5137265;27;20198;-66
2022/09/29 08:30:29;;;;;;;0.80;0.80;;;;;;;;;;5136692;27;20213;-66
2022/09/29 08:32:58;;;;;;;1.05;0.95;;;;;;;;;;5134099;27;20207;-66
2022/09/29 08:35:26;;;;;;;0.80;0.75;;;;;;;;;;5135440;27;20238;-66
2022/09/29 08:37:57;;;;;;;1.33;0.85;;;;;;;;;;5136941;27;20404;-66
2022/09/29 08:40:28;;;;;;;0.90;0.90;;;;;;;;;;5136737;27;20206;-65
2022/09/29 08:43:01;;;;;;;0.88;0.80;;;;;;;;;;5137073;27;20206;-66
2022/09/29 08:45:30;;;;;;;0.80;0.80;;;;;;;;;;5134454;27;20220;-66
2022/09/29 08:48:02;;;;;;;1.10;0.98;;;;;;;;;;5137257;27;20248;-66
2022/09/29 08:50:32;;;;;;;1.02;0.88;;;;;;;;;;5136739;27;20296;-66
2022/09/29 08:53:00;;;;;;;1.05;0.95;;;;;;;;;;5136737;27;20281;-65
2022/09/29 08:55:33;;;;;;;1.88;0.80;;;;;;;;;;5135844;27;20290;-66
2022/09/29 08:58:01;;;;;;;1.20;1.10;;;;;;;;;;5136470;27;20572;-66
2022/09/29 09:00:34;;;;;;;1.30;1.00;;;;;;;;;;5136405;27;20293;-66
2022/09/29 09:03:19;;;;;;;1.70;0.95;;;;;;;;;;5136043;27;20501;-66
2022/09/29 09:05:55;;;;;;;1.67;0.90;;;;;;;;;;5119405;27;20209;-66
2022/09/29 09:08:27;;;;;;;1.95;1.00;;;;;;;;;;5135985;27;20643;-65
2022/09/29 09:10:59;;;;;;;1.45;1.08;;;;;;;;;;5134745;27;20735;-66
2022/09/29 09:13:35;;;;;;;1.33;0.93;;;;;;;;;;5134781;27;20201;-65
2022/09/29 09:16:10;;;;;;;3.20;1.13;;;;;;;;;;5135551;27;20202;-66
2022/09/29 09:18:45;;;;;;;2.35;1.17;;;;;;;;;;5135598;27;20212;-65
2022/09/29 09:21:18;;;;;;;1.75;1.10;;;;;;;;;;5135565;27;20230;-65
2022/09/29 09:23:53;;;;;;;3.15;1.00;;;;;;;;;;5121002;27;20301;-65
2022/09/29 09:26:21;;;;;;;1.20;1.10;;;;;;;;;;5113481;28;20241;-65
2022/09/29 09:28:50;;;;;;;1.20;0.90;;;;;;;;;;5107612;28;20265;-66
2022/09/29 09:31:21;;;;;;;3.05;1.10;;;;;;;;;;5115664;28;20297;-65
2022/09/29 09:33:52;;;;;;;2.40;1.05;;;;;;;;;;5114714;28;20310;-66
2022/09/29 09:36:24;;;;;;;2.67;1.10;;;;;;;;;;5115403;28;20297;-66
2022/09/29 09:38:54;;;;;;;3.17;1.20;;;;;;;;;;5122842;27;20194;-66
2022/09/29 09:41:24;;;;;;;3.53;1.02;;;;;;;;;;5135207;27;20582;-66
2022/09/29 09:43:55;;;;;;;2.00;1.00;;;;;;;;;;5134030;27;20282;-66
2022/09/29 09:46:25;;;;;;;2.60;1.17;;;;;;;;;;5135235;27;20209;-66
2022/09/29 09:48:58;;;;;;;2.53;1.33;;;;;;;;;;5134725;27;20705;-66
2022/09/29 09:51:33;;;;;;;4.70;1.10;;;;;;;;;;5134874;27;20317;-66
2022/09/29 09:54:05;;;;;;;2.33;1.50;;;;;;;;;;5135122;27;20266;-66
2022/09/29 09:56:43;;;;;;;2.67;1.38;;;;;;;;;;5135042;27;20248;-66
2022/09/29 09:59:20;;;;;;;3.65;1.33;;;;;;;;;;5135090;27;20209;-66
2022/09/29 10:01:47;;;;;;;4.55;1.55;;;;;;;;;;5136012;28;20258;-66
2022/09/29 10:04:15;;;;;;;1.95;1.30;;;;;;;;;;5135181;28;20518;-66
2022/09/29 10:06:44;;;;;;;3.17;1.30;;;;;;;;;;5134189;28;20289;-66
2022/09/29 10:09:14;;;;;;;1.98;1.42;;;;;;;;;;5135492;28;20225;-65
2022/09/29 10:11:42;;;;;;;3.97;1.30;;;;;;;;;;5135413;28;20202;-66
2022/09/29 10:14:13;;;;;;;1.75;1.40;;;;;;;;;;5135846;28;20220;-65
2022/09/29 10:16:44;;;;;;;2.70;1.38;;;;;;;;;;5134818;28;20204;-65
2022/09/29 10:19:12;;;;;;;3.00;1.48;;;;;;;;;;5135138;28;20195;-65
2022/09/29 10:21:40;;;;;;;4.00;1.52;;;;;;;;;;5134266;28;20491;-65
2022/09/29 10:24:21;;;;;;;2.42;1.40;;;;;;;;;;5136198;27;20229;-66
2022/09/29 10:26:50;;;;;;;2.28;1.27;;;;;;;;;;5138194;27;20631;-66
2022/09/29 10:29:20;;;;;;;2.60;1.38;;;;;;;;;;5138716;27;20261;-66
2022/09/29 10:32:00;;;;;;;3.50;1.55;;;;;;;;;;5139035;27;20301;-66
2022/09/29 10:34:29;;;;;;;3.53;1.60;;;;;;;;;;5137408;27;20200;-66
2022/09/29 10:36:57;;;;;;;3.90;1.77;;;;;;;;;;5138615;27;20386;-66
2022/09/29 10:39:42;;;;;;;4.65;1.30;;;;;;;;;;5138237;27;20294;-66
2022/09/29 10:42:22;;;;;;;2.28;1.30;;;;;;;;;;5138725;27;20759;-66
2022/09/29 10:44:54;;;;;;;2.55;1.50;;;;;;;;;;5137074;27;20319;-66
2022/09/29 10:47:22;;;;;;;3.22;1.48;;;;;;;;;;5137995;27;20212;-66
2022/09/29 10:50:07;;;;;;;2.40;1.40;;;;;;;;;;5138112;27;20258;-66
2022/09/29 10:52:35;;;;;;;3.00;1.42;;;;;;;;;;5131418;27;20220;-65
2022/09/29 10:55:05;;;;;;;3.25;1.50;;;;;;;;;;5137918;27;20482;-65
2022/09/29 10:57:36;;;;;;;1.85;1.20;;;;;;;;;;5136351;27;20502;-66
2022/09/29 11:00:05;;;;;;;2.40;1.58;;;;;;;;;;5136534;27;20190;-65
2022/09/29 11:02:35;;;;;;;3.65;1.63;;;;;;;;;;5136582;27;20206;-66
2022/09/29 11:05:03;;;;;;;2.28;1.35;;;;;;;;;;5137094;27;20654;-66
2022/09/29 11:07:33;;;;;;;1.75;1.40;;;;;;;;;;5137257;27;20244;-66
2022/09/29 11:10:01;;;;;;;3.38;1.65;;;;;;;;;;5137328;27;20253;-66
2022/09/29 11:12:32;;;;;;;1.80;1.35;;;;;;;;;;5137746;27;20267;-65
2022/09/29 11:15:00;;;;;;;2.38;1.42;;;;;;;;;;5136497;27;20238;-66
2022/09/29 11:17:28;;;;;;;3.88;1.30;;;;;;;;;;5136941;27;20284;-65
2022/09/29 11:19:56;;;;;;;2.08;1.27;;;;;;;;;;5137737;27;20506;-65
2022/09/29 11:22:36;;;;;;;3.00;1.42;;;;;;;;;;5137170;27;20209;-66
2022/09/29 11:25:12;;;;;;;2.05;1.40;;;;;;;;;;5137103;27;20194;-65
2022/09/29 11:27:55;;;;;;;2.63;1.25;;;;;;;;;;5134255;27;20294;-66
2022/09/29 11:30:24;;;;;;;2.20;1.30;;;;;;;;;;5131253;27;20226;-66
2022/09/29 11:33:00;;;;;;;2.33;1.30;;;;;;;;;;5138264;27;20282;-66
2022/09/29 11:35:37;;;;;;;2.63;1.30;;;;;;;;;;5135082;27;20708;-66
2022/09/29 11:38:20;;;;;;;3.08;1.63;;;;;;;;;;5135887;27;20202;-67
2022/09/29 11:40:55;;;;;;;3.20;1.48;;;;;;;;;;5137746;27;20199;-67
2022/09/29 11:43:34;;;;;;;2.47;1.30;;;;;;;;;;5136847;27;20278;-67
2022/09/29 11:46:07;;;;;;;1.58;1.48;;;;;;;;;;5135802;27;20266;-66
2022/09/29 11:48:45;;;;;;;2.08;1.40;;;;;;;;;;5137580;27;20202;-66
2022/09/29 11:51:17;;;;;;;1.77;1.20;;;;;;;;;;5136527;27;20411;-66
2022/09/29 11:53:51;;;;;;;3.03;1.50;;;;;;;;;;5137429;27;20305;-67
2022/09/29 11:56:26;;;;;;;1.90;1.48;;;;;;;;;;5136015;27;20206;-66
2022/09/29 11:59:02;;;;;;;1.98;1.42;;;;;;;;;;5136847;27;20754;-65
2022/09/29 12:01:40;;;;;;;2.80;1.45;;;;;;;;;;5135778;27;20269;-66
2022/09/29 12:04:21;;;;;;;1.80;1.30;;;;;;;;;;5136558;27;20556;-66
2022/09/29 12:06:56;;;;;;;1.77;1.50;;;;;;;;;;5135241;27;20194;-66
2022/09/29 12:09:37;;;;;;;1.80;1.10;;;;;;;;;;5137157;27;20249;-65
2022/09/29 12:12:08;;;;;;;1.95;1.13;;;;;;;;;;5136538;27;20255;-66
2022/09/29 12:14:39;;;;;;;2.88;1.38;;;;;;;;;;5136843;27;20619;-65
2022/09/29 12:17:11;;;;;;;1.85;1.20;;;;;;;;;;5135556;27;20293;-66
2022/09/29 12:19:40;;;;;;;1.42;1.20;;;;;;;;;;5134615;27;20205;-66
2022/09/29 12:22:10;;;;;;;1.02;0.93;;;;;;;;;;5135667;27;20281;-66
2022/09/29 12:24:38;;;;;;;1.95;1.20;;;;;;;;;;5134937;27;20205;-65
2022/09/29 12:27:08;;;;;;;2.15;1.10;;;;;;;;;;5134895;27;20252;-66
2022/09/29 12:29:38;;;;;;;1.50;1.20;;;;;;;;;;5133939;27;20218;-66
2022/09/29 12:32:09;;;;;;;1.83;1.08;;;;;;;;;;5134196;27;20293;-66
2022/09/29 12:34:41;;;;;;;1.58;1.20;;;;;;;;;;5133589;27;20678;-65
2022/09/29 12:37:13;;;;;;;2.58;1.15;;;;;;;;;;5134857;27;20198;-65
2022/09/29 12:39:42;;;;;;;1.98;1.27;;;;;;;;;;5134395;27;20241;-66
2022/09/29 12:42:28;;;;;;;1.30;1.20;;;;;;;;;;5134330;27;20234;-65
2022/09/29 12:44:58;;;;;;;1.40;1.15;;;;;;;;;;5133352;27;20543;-65
2022/09/29 12:47:30;;;;;;;1.35;1.23;;;;;;;;;;5134928;27;20202;-65
2022/09/29 12:50:02;;;;;;;1.80;1.30;;;;;;;;;;5134206;27;20218;-66
2022/09/29 12:52:32;;;;;;;1.40;1.15;;;;;;;;;;5135029;27;20202;-65
2022/09/29 12:55:03;;;;;;;1.77;1.35;;;;;;;;;;5134314;27;20501;-65
2022/09/29 12:57:33;;;;;;;1.65;1.23;;;;;;;;;;5134759;27;20202;-66
2022/09/29 13:00:03;;;;;;;1.40;1.20;;;;;;;;;;5133549;27;20290;-65
2022/09/29 13:02:42;;;;;;;1.30;1.10;;;;;;;;;;5135282;27;20290;-67
2022/09/29 13:05:17;;;;;;;1.35;1.00;;;;;;;;;;5135174;27;20491;-65
2022/09/29 13:08:14;;;;;;;1.90;1.10;;;;;;;;;;5134608;27;20206;-66
2022/09/29 13:10:57;;;;;;;2.03;1.45;;;;;;;;;;5030091;28;20229;-65
2022/09/29 13:13:42;;;;;;;1.33;1.23;;;;;;;;;;5121636;27;20202;-65
2022/09/29 13:16:16;;;;;;;1.88;1.10;;;;;;;;;;5134372;27;20198;-67
2022/09/29 13:18:58;;;;;;;1.83;1.20;;;;;;;;;;5133738;27;20292;-67
2022/09/29 13:21:33;;;;;;;1.65;1.30;;;;;;;;;;5131081;27;20322;-66
2022/09/29 13:24:12;;;;;;;1.35;1.25;;;;;;;;;;5134205;27;20642;-65
2022/09/29 13:26:57;;;;;;;1.38;1.00;;;;;;;;;;5134932;27;20280;-67
2022/09/29 13:29:27;;;;;;;0.88;0.88;;;;;;;;;;5084098;27;20672;-66
2022/09/29 13:31:56;;;;;;;1.38;1.27;;;;;;;;;;5134863;27;20312;-66
2022/09/29 13:34:28;;;;;;;2.08;1.13;;;;;;;;;;5133960;27;20301;-67
2022/09/29 13:37:05;;;;;;;1.95;1.10;;;;;;;;;;5134373;27;20604;-67
2022/09/29 13:39:34;;;;;;;1.80;1.23;;;;;;;;;;5134126;27;20221;-67
2022/09/29 13:42:27;;;;;;;1.85;1.40;;;;;;;;;;5133218;27;20202;-67
2022/09/29 13:45:09;;;;;;;1.30;1.02;;;;;;;;;;5133075;27;20190;-66
2022/09/29 13:47:36;;;;;;;1.15;1.02;;;;;;;;;;5132727;27;20237;-67
2022/09/29 13:50:18;;;;;;;1.17;1.00;;;;;;;;;;5133607;27;20218;-67
2022/09/29 13:52:47;;;;;;;1.23;1.00;;;;;;;;;;5132473;27;20202;-67
2022/09/29 13:55:45;;;;;;;1.77;0.90;;;;;;;;;;5133162;27;20202;-67
2022/09/29 13:58:22;;;;;;;1.08;0.90;;;;;;;;;;5030186;28;20346;-67
2022/09/29 14:00:49;;;;;;;3.72;1.00;;;;;;;;;;5117126;28;20198;-67
2022/09/29 14:03:26;;;;;;;2.03;0.90;;;;;;;;;;5133888;28;20233;-67
2022/09/29 14:06:17;;;;;;;1.70;1.00;;;;;;;;;;5132734;28;20237;-67
2022/09/29 14:08:48;;;;;;;2.17;0.90;;;;;;;;;;5132766;28;20238;-67
2022/09/29 14:11:19;;;;;;;2.03;0.90;;;;;;;;;;5133225;28;20210;-67
2022/09/29 14:13:49;;;;;;;1.13;0.93;;;;;;;;;;5134372;28;20198;-67
2022/09/29 14:16:25;;;;;;;1.10;0.98;;;;;;;;;;5133366;28;20198;-67
2022/09/29 14:18:54;;;;;;;1.17;1.00;;;;;;;;;;5133369;28;20647;-67
2022/09/29 14:21:40;;;;;;;0.90;0.90;;;;;;;;;;5133505;28;20258;-67
2022/09/29 14:24:42;;;;;;;1.00;0.90;;;;;;;;;;5133540;28;20598;-67
2022/09/29 14:27:29;;;;;;;2.35;1.00;;;;;;;;;;5133954;28;20198;-66
2022/09/29 14:30:01;;;;;;;1.42;1.00;;;;;;;;;;5134350;28;20296;-67
2022/09/29 14:32:35;;;;;;;1.35;0.90;;;;;;;;;;5134481;28;20302;-66
2022/09/29 14:35:04;;;;;;;1.42;0.68;;;;;;;;;;5133314;28;20242;-67
2022/09/29 14:37:32;;;;;;;2.03;1.20;;;;;;;;;;5133289;28;20302;-67
2022/09/29 14:42:47;;;;;;;1.25;0.90;;;;;;;;;;5133139;28;20194;-65
2022/09/29 14:53:46;;;;;;;0.80;0.80;;;;;;;;;;5133808;28;20197;-66
2022/09/29 14:56:23;;;;;;;1.00;0.90;;;;;;;;;;5133434;28;20552;-65
2022/09/29 14:58:58;;;;;;;1.10;0.85;;;;;;;;;;5134197;28;20202;-67
2022/09/29 15:01:27;;;;;;;0.70;0.70;;;;;;;;;;5133306;28;20202;-66
2022/09/29 15:03:56;;;;;;;0.77;0.77;;;;;;;;;;5133196;28;20360;-65
2022/09/29 15:06:25;;;;;;;1.27;0.80;;;;;;;;;;5133134;28;20545;-67
2022/09/29 15:40:27;;;;;;;2.92;0.95;;;;;;;;;;5124003;27;1438443;-66
2022/09/29 15:42:55;;;;;;;1.98;1.08;;;;;;;;;;5174049;27;20277;-65
2022/09/29 15:45:25;;;;;;;3.10;1.10;;;;;;;;;;5173423;27;20276;-66
2022/09/29 15:47:59;;;;;;;3.00;0.90;;;;;;;;;;5173130;27;20295;-66
2022/09/29 15:50:30;;;;;;;2.53;1.30;;;;;;;;;;5173460;27;20232;-65